Flight Track Log - Related Links

Times and Time Zones

All times are in EDT time to prevent confusion due to time zone crossing. See the UAL4498 flight status page for this flight to view local times or setup timezone preferences in your user account.

Time Position Orientation Groundspeed Altitude Reporting Facility
EDT Latitude Longitude Course Direction KTS MPH feet Rate Location/Type
Sun 10:48:11 AM 40.6667 -74.1833 276° West 171 197 1,300  Level New York TRACON
Sun 10:49:11 AM 40.6333 -74.2167 217° Southwest 215 247 2,900 1,850 Climbing New York TRACON
Sun 10:50:11 AM 40.6500 -74.3000 285° West 253 291 5,000 2,121 Climbing New York TRACON
Sun 10:51:00 AM 40.7457 -74.6520 277° West  Level FlightAware Approximate
Sun 10:52:00 AM 40.7561 -74.7782 276° West  Level FlightAware Approximate
Sun 10:52:29 AM 40.7069 -74.4969 291° West 265 305 9,900  Level New York Center
Sun 10:53:00 AM 40.7657 -74.9045 276° West  Level FlightAware Approximate
Sun 10:53:30 AM 40.7244 -74.6019 282° West 290 334 11,100  Level New York Center
Sun 10:54:30 AM 40.7450 -74.7344 282° West 326 375 12,300 1,240 Climbing New York Center
Sun 10:55:31 AM 40.7622 -74.8450 282° West 344 396 13,600 1,525 Climbing New York Center
Sun 10:56:28 AM 40.7800 -74.9858 280° West 354 407 15,300 1,373 Climbing New York Center
Sun 10:57:29 AM 40.7547 -75.1103 255° West 349 402 16,300 950 Climbing New York Center
Sun 10:58:28 AM 40.7189 -75.2339 249° West 358 412 17,200 900 Climbing New York Center
Sun 10:59:29 AM 40.6808 -75.3603 248° West 364 419 18,100 984 Climbing New York Center
Sun 11:00:30 AM 40.6467 -75.4864 250° West 370 426 19,200 1,140 Climbing New York Center
Sun 11:01:30 AM 40.6128 -75.6017 249° West 370 426 20,400 1,200 Climbing New York Center
Sun 11:02:30 AM 40.5739 -75.7328 249° West 370 426 21,600 1,220 Climbing New York Center
Sun 11:03:28 AM 40.5372 -75.8614 249° West 375 432 22,800 1,240 Climbing New York Center
Sun 11:04:31 AM 40.4942 -75.9892 246° West 381 438 24,100 1,350 Climbing New York Center
Sun 11:05:28 AM 40.4572 -76.1144 249° West 386 444 25,500 1,373 Climbing New York Center
Sun 11:06:29 AM 40.4206 -76.2372 249° West 379 436 26,800 1,240 Climbing New York Center
Sun 11:07:29 AM 40.3836 -76.3569 248° West 374 430 28,000 1,091 Climbing New York Center
Sun 11:08:30 AM 40.3486 -76.4767 249° West 367 422 29,000 1,000 Climbing New York Center
Sun 11:09:29 AM 40.3258 -76.6028 257° West 362 417 30,000 1,000 Climbing New York Center
Sun 11:10:30 AM 40.3069 -76.7292 259° West 362 417 31,000 942 Climbing New York Center
Sun 11:11:30 AM 40.2881 -76.8553 259° West 357 411 31,900 864 Climbing New York Center
Sun 11:12:28 AM 40.2642 -76.9947 257° West 357 411 32,700 1,008 Climbing New York Center
Sun 11:13:29 AM 40.2475 -77.1131 260° West 362 417 33,900 1,091 Climbing New York Center
Sun 11:14:29 AM 40.2278 -77.2417 259° West 367 422 34,900 733 Climbing New York Center
Sun 11:16:21 AM 40.1919 -77.4872 259° West 352 405 36,000 382 Climbing Cleveland Center
Sun 11:17:22 AM 40.1725 -77.6186 259° West 352 405 36,000  Level Cleveland Center
Sun 11:18:21 AM 40.1528 -77.7500 259° West 365 420 36,000  Level Cleveland Center
Sun 11:19:21 AM 40.1394 -77.8836 263° West 370 426 36,000  Level Cleveland Center
Sun 11:20:22 AM 40.1361 -78.0086 268° West 385 443 36,000  Level Cleveland Center
Sun 11:21:22 AM 40.1389 -78.1417 272° West 385 443 36,000  Level Cleveland Center
Sun 11:22:22 AM 40.1458 -78.2744 274° West 373 429 36,000  Level Cleveland Center
Sun 11:23:22 AM 40.1525 -78.4019 274° West 368 423 36,000  Level Cleveland Center
Sun 11:24:21 AM 40.1592 -78.5347 274° West 368 423 36,000  Level Cleveland Center
Sun 11:25:21 AM 40.1636 -78.6678 273° West 368 423 36,000  Level Cleveland Center
Sun 11:26:21 AM 40.1700 -78.7981 274° West 368 423 36,000  Level Cleveland Center
Sun 11:27:21 AM 40.1739 -78.9311 272° West 368 423 36,000  Level Cleveland Center
Sun 11:28:22 AM 40.1800 -79.0642 273° West 368 423 36,000  Level Cleveland Center
Sun 11:29:21 AM 40.1839 -79.1972 272° West 368 423 36,000  Level Cleveland Center
Sun 11:30:21 AM 40.1917 -79.3436 274° West 368 423 36,000  Level Cleveland Center
Sun 11:31:22 AM 40.1972 -79.4742 273° West 363 418 36,000  Level Cleveland Center
Sun 11:32:21 AM 40.2006 -79.6044 272° West 363 418 36,000  Level Cleveland Center
Sun 11:33:21 AM 40.2058 -79.7431 273° West 369 425 36,000  Level Cleveland Center
Sun 11:34:21 AM 40.2089 -79.8789 272° West 369 425 36,000  Level Cleveland Center
Sun 11:35:21 AM 40.2117 -80.0150 272° West 379 436 36,000  Level Cleveland Center
Sun 11:36:21 AM 40.2164 -80.1536 273° West 381 438 36,000  Level Cleveland Center
Sun 11:37:22 AM 40.2189 -80.2894 271° West 381 438 36,000  Level Cleveland Center
Sun 11:38:21 AM 40.2233 -80.4281 272° West 376 433 36,000  Level Cleveland Center
Sun 11:39:22 AM 40.2278 -80.5586 273° West 376 433 36,000  Level Cleveland Center
Sun 11:40:21 AM 40.2317 -80.6947 272° West 376 433 36,000  Level Cleveland Center
Sun 11:42:01 AM 40.2325 -80.9067 270° West 368 423 36,000  Level Indianapolis Center
Sun 11:43:02 AM 40.2347 -81.0431 271° West 371 427 36,000  Level Indianapolis Center
Sun 11:44:04 AM 40.2381 -81.1819 272° West 378 435 36,000  Level Indianapolis Center
Sun 11:45:05 AM 40.2403 -81.3208 271° West 376 433 36,000  Level Indianapolis Center
Sun 11:46:07 AM 40.2425 -81.4539 271° West 365 420 36,000  Level Indianapolis Center
Sun 11:47:08 AM 40.2436 -81.5897 271° West 368 423 36,000  Level Indianapolis Center
Sun 11:48:10 AM 40.2458 -81.7233 271° West 366 421 36,000  Level Indianapolis Center
Sun 11:49:11 AM 40.2481 -81.8617 271° West 374 430 36,000  Level Indianapolis Center
Sun 11:50:12 AM 40.2494 -82.0233 271° West 376 433 36,000  Level Indianapolis Center
Sun 11:51:14 AM 40.2514 -82.1594 271° West 372 428 36,000  Level Indianapolis Center
Sun 11:52:16 AM 40.2528 -82.2964 271° West 373 429 36,000  Level Indianapolis Center
Sun 11:53:17 AM 40.2539 -82.4339 271° West 374 430 36,000 -488 Level Indianapolis Center
Sun 11:54:19 AM 40.2556 -82.5722 271° West 376 433 35,000 -1,317 Descending Indianapolis Center
Sun 11:55:20 AM 40.2558 -82.7039 270° West 363 418 33,300 -1,659 Descending Indianapolis Center
Sun 11:56:22 AM 40.2561 -82.8428 270° West 366 421 31,600 -1,366 Descending Indianapolis Center
Sun 11:57:23 AM 40.2567 -82.9769 270° West 366 421 30,500 -780 Descending Indianapolis Center
Sun 11:58:25 AM 40.2569 -83.1150 270° West 377 434 30,000 -244 Descending Indianapolis Center
Sun 11:59:26 AM 40.2567 -83.2522 270° West 376 433 30,000  Level Indianapolis Center
Sun 12:00:28 PM 40.2572 -83.3903 270° West 378 435 30,000  Level Indianapolis Center
Sun 12:01:30 PM 40.2697 -83.5300 277° West 386 444 30,000 -195 Level Indianapolis Center
Sun 12:02:31 PM 40.2897 -83.6950 279° West 392 451 29,600 -927 Descending Indianapolis Center
Sun 12:03:33 PM 40.2875 -83.8414 269° West 398 458 28,100 -1,512 Descending Indianapolis Center
Sun 12:04:34 PM 40.2833 -83.9928 268° West 416 479 26,500 -1,512 Descending Indianapolis Center
Sun 12:05:36 PM 40.2800 -84.1481 268° West 423 487 25,000 -1,220 Descending Indianapolis Center
Sun 12:06:37 PM 40.2758 -84.3008 268° West 415 478 24,000 -488 Descending Indianapolis Center
Sun 12:07:39 PM 40.2700 -84.4456 267° West 398 458 24,000  Level Indianapolis Center
Sun 12:08:41 PM 40.2664 -84.5961 268° West 410 472 24,000  Level Indianapolis Center
Sun 12:09:42 PM 40.2619 -84.7472 268° West 413 475 24,000 -780 Level Indianapolis Center
Sun 12:10:44 PM 40.2561 -84.9044 267° West 402 463 22,400 -1,512 Descending Indianapolis Center
Sun 12:11:45 PM 40.2508 -85.0450 267° West 386 444 20,900 -1,463 Descending Indianapolis Center
Sun 12:12:47 PM 40.2453 -85.1867 267° West 390 449 19,400 -1,707 Descending Indianapolis Center
Sun 12:13:48 PM 40.2406 -85.3236 267° West 377 434 17,400 -2,488 Descending Indianapolis Center
Sun 12:14:50 PM 40.2083 -85.4614 253° West 340 391 14,300 -2,855 Descending Indianapolis Center
Sun 12:15:52 PM 40.1633 -85.5672 241° Southwest 332 382 11,500 -1,659 Descending Indianapolis Center
Sun 12:16:53 PM 40.1225 -85.6583 240° Southwest 289 333 10,900 -878 Descending Indianapolis Center
Sun 12:17:55 PM 40.0622 -85.7142 215° Southwest 265 305 9,700 -1,317 Descending Indianapolis Center
Sun 12:18:56 PM 40.0044 -85.7700 217° Southwest 259 298 8,200 -1,366 Descending Indianapolis Center
Sun 12:19:58 PM 39.9528 -85.8178 215° Southwest 234 269 6,900 -1,366 Descending Indianapolis Center
Sun 12:20:59 PM 39.9431 -85.8908 260° West 221 254 5,400 -927 Descending Indianapolis Center
Sun 12:22:01 PM 39.9428 -85.9675 270° West 214 246 5,000 -195 Descending Indianapolis Center
Sun 12:23:02 PM 39.9139 -86.0317 240° Southwest 215 247 5,000 -49 Level Indianapolis Center
Sun 12:24:04 PM 39.8708 -86.0850 224° Southwest 192 221 4,900 -432 Descending Indianapolis Center
Sun 12:25:07 PM 39.8333 -86.1333 225° Southwest 163 188 4,100 -829 Descending Indianapolis TRACON
Sun 12:26:07 PM 39.8000 -86.1667 218° Southwest 167 192 3,200 -947 Descending Indianapolis TRACON
Sun 12:27:01 PM 39.7833 -86.2000 237° Southwest 164 189 2,300 -800 Descending Indianapolis TRACON
Sun 12:28:07 PM 39.7500 -86.2500 229° Southwest 133 153 1,600 -636 Descending Indianapolis TRACON

Login

Don't have an account? Register now (free) for customized features, flight alerts, and more!